tititudorancea.com
Station Historical Data
Daily Summary for March 4, 2018 Units:  Metric    English   Both
« Previous Day
Next Day »
Daily Weekly Monthly Yearly Custom
  High: Low: Average:
Temperature: -17.8 °C 11 °C 15.7 °C
Dew Point: -17.8 °C 5.6 °C 7.8 °C
Humidity: Humidity % 39 % 62 %
Wind Speed: 0 km/h 0 km/h 9.3 km/h
Wind Gust: 0 km/h - -
Wind:- - SW
Pressure: 0 hPa 1012.8 hPa -
Precipitation: 0 mm    
Historical Graphs
 
 
Ararat weather Find more about Weather in Ararat, AU


 



 


Tabular Data for March 4, 2018
Time Temperature Dew Point Pressure Wind Wind Speed Wind Gust Humidity Rainfall Rate (Hourly)
-17.8 °C -17.8 °C 0 hPa Calm     Humidity % 0 mm
00:00 13.7 °C 10.2 °C 1012.8 hPa South 4.7 km/h 5.6 km/h 79 % 0 mm
00:05 13.7 °C 10.1 °C 1012.8 hPa North 3.7 km/h 5.6 km/h 79 % 0 mm
00:10 13.6 °C 10.2 °C 1012.8 hPa South 4.5 km/h 7.4 km/h 80 % 0 mm
00:15 13.5 °C 10.1 °C 1012.8 hPa South 1.6 km/h 5.6 km/h 80 % 0 mm
00:20 13.4 °C 10.1 °C 1012.8 hPa North 2.4 km/h 5.6 km/h 80 % 0 mm
00:25 13.3 °C 10.2 °C 1012.8 hPa South 0.3 km/h 1.9 km/h 81 % 0 mm
00:30 13.2 °C 10.1 °C 1012.8 hPa South 3.4 km/h 5.6 km/h 81 % 0 mm
00:35 13.2 °C 10 °C 1012.8 hPa North 3.4 km/h 5.6 km/h 81 % 0 mm
00:40 13.1 °C 10.1 °C 1012.8 hPa South 4.5 km/h 7.4 km/h 82 % 0 mm
00:45 12.9 °C 10.1 °C 1012.8 hPa South 4.7 km/h 6.4 km/h 83 % 0 mm
00:50 12.9 °C 10.1 °C 1012.8 hPa South 5 km/h 6.4 km/h 83 % 0 mm
00:55 12.8 °C 10.2 °C 1012.8 hPa South 3.7 km/h 5.6 km/h 84 % 0 mm
01:00 12.7 °C 10.1 °C 1012.8 hPa North 2.3 km/h 4.8 km/h 84 % 0 mm
01:05 12.7 °C 10.1 °C 1013.1 hPa South 2.7 km/h 5.6 km/h 84 % 0 mm
01:10 12.6 °C 10.2 °C 1013.1 hPa South 3.1 km/h 3.7 km/h 85 % 0 mm
01:15 12.5 °C 10.1 °C 1013.1 hPa North 1.1 km/h 3.7 km/h 85 % 0 mm
01:20 12.4 °C 10 °C 1013.1 hPa South 1.9 km/h 3.7 km/h 85 % 0 mm
01:25 12.3 °C 9.9 °C 1013.1 hPa North 4.3 km/h 5.6 km/h 85 % 0 mm
01:30 12.3 °C 10 °C 1013.1 hPa North 5.3 km/h 5.6 km/h 86 % 0 mm
01:35 12.3 °C 10.2 °C 1013.1 hPa South 4.8 km/h 6.4 km/h 87 % 0 mm
01:40 12.3 °C 10.2 °C 1013.1 hPa South 3.9 km/h 5.6 km/h 87 % 0 mm
01:45 12.4 °C 10.3 °C 1013.1 hPa North 2.4 km/h 5.6 km/h 87 % 0 mm
01:50 12.4 °C 10.3 °C 1013.1 hPa North 2.7 km/h 5.6 km/h 87 % 0 mm
01:55 12.4 °C 10.5 °C 1013.1 hPa South 1.8 km/h 3.7 km/h 88 % 0 mm
02:00 12.5 °C 10.6 °C 1013.1 hPa South 1.1 km/h 3.7 km/h 88 % 0 mm
02:05 12.5 °C 10.6 °C 1013.1 hPa South 1.9 km/h 3.7 km/h 88 % 0 mm
02:10 12.6 °C 10.4 °C 1013.1 hPa South 2.7 km/h 5.6 km/h 87 % 0 mm
02:15 12.6 °C 10.4 °C 1013.1 hPa South 2.4 km/h 3.7 km/h 87 % 0 mm
02:20 12.5 °C 10.4 °C 1013.1 hPa North 3.9 km/h 5.6 km/h 87 % 0 mm
02:25 12.5 °C 10.6 °C 1013.1 hPa South 3.4 km/h 7.4 km/h 88 % 0 mm
02:30 12.5 °C 10.6 °C 1013.1 hPa South 5.3 km/h 9.3 km/h 88 % 0 mm
02:35 12.6 °C 10.7 °C 1013.1 hPa South 3.9 km/h 8 km/h 88 % 0 mm
02:40 12.5 °C 10.6 °C 1013.1 hPa South 1.6 km/h 5.6 km/h 88 % 0 mm
02:45 12.4 °C 10.4 °C 1012.8 hPa North 0.8 km/h 4.8 km/h 88 % 0 mm
02:50 12.2 °C 10.3 °C 1013.1 hPa South 2.4 km/h 5.6 km/h 88 % 0 mm
02:55 12.2 °C 10.4 °C 1012.8 hPa North 1.9 km/h 5.6 km/h 89 % 0 mm
03:00 12.1 °C 10.3 °C 1012.8 hPa North 2.6 km/h 5.6 km/h 89 % 0 mm
03:05 12 °C 10.2 °C 1013.1 hPa North 4 km/h 5.6 km/h 89 % 0 mm
03:10 11.9 °C 10.2 °C 1012.8 hPa North 3.2 km/h 5.6 km/h 89 % 0 mm
03:15 11.8 °C 10.2 °C 1012.8 hPa North 4.2 km/h 7.4 km/h 90 % 0 mm
03:20 11.8 °C 10.2 °C 1012.8 hPa North 2.9 km/h 3.7 km/h 90 % 0 mm
03:25 11.7 °C 10.1 °C 1012.8 hPa North 2.6 km/h 5.6 km/h 90 % 0 mm
03:30 11.7 °C 10.1 °C 1012.8 hPa South 4.7 km/h 5.6 km/h 90 % 0 mm
03:35 11.7 °C 10.1 °C 1013.1 hPa North 5 km/h 6.4 km/h 90 % 0 mm
03:40 11.8 °C 10.3 °C 1013.1 hPa South 3.2 km/h 5.6 km/h 91 % 0 mm
03:45 11.8 °C 10.3 °C 1013.1 hPa Calm     91 % 0 mm
03:50 11.7 °C 10.3 °C 1012.8 hPa North 1.6 km/h 3.7 km/h 91 % 0 mm
03:55 11.7 °C 10.2 °C 1012.8 hPa South 0.2 km/h 1.9 km/h 91 % 0 mm
04:00 11.7 °C 10.2 °C 1012.8 hPa North 1.3 km/h 3.7 km/h 91 % 0 mm
04:05 11.6 °C 10.2 °C 1012.8 hPa North 4.2 km/h 5.6 km/h 91 % 0 mm
04:10 11.6 °C 10.3 °C 1012.8 hPa North 2.9 km/h 5.6 km/h 92 % 0 mm
04:15 11.7 °C 10.4 °C 1012.8 hPa North 2.3 km/h 5.6 km/h 92 % 0 mm
04:20 11.7 °C 10.4 °C 1012.8 hPa South 4.2 km/h 6.4 km/h 92 % 0 mm
04:25 11.7 °C 10.4 °C 1012.8 hPa North 2.9 km/h 4.8 km/h 92 % 0 mm
04:30 11.8 °C 10.5 °C 1012.8 hPa North 5.8 km/h 7.4 km/h 92 % 0 mm
04:35 11.8 °C 10.6 °C 1012.8 hPa South 6.8 km/h 9.3 km/h 92 % 0 mm
04:40 12 °C 10.9 °C 1012.8 hPa North 6.1 km/h 7.4 km/h 93 % 0 mm
04:45 12.2 °C 11.1 °C 1012.8 hPa South 5.6 km/h 13 km/h 93 % 0 mm
04:50 12.4 °C 11.3 °C 1012.8 hPa North 8.9 km/h 13 km/h 93 % 0 mm
04:55 12.4 °C 11.3 °C 1012.8 hPa South 9.2 km/h 11.1 km/h 93 % 0 mm
05:00 12.4 °C 11.3 °C 1012.8 hPa North 10.1 km/h 14.8 km/h 93 % 0 mm
05:05 12.4 °C 11.3 °C 1012.8 hPa South 6.4 km/h 9.3 km/h 93 % 0 mm
05:10 12.4 °C 11.3 °C 1012.8 hPa South 5 km/h 9.3 km/h 93 % 0 mm
11:06 16.5 °C 9.2 °C 1015.5 hPa SSW 19.2 km/h 25.9 km/h 62 % 0 mm
11:11 16.1 °C 8.8 °C 1015.5 hPa SSW 14 km/h 18.5 km/h 62 % 0 mm
11:16 16.7 °C 8.9 °C 1015.5 hPa South 21.7 km/h 31.5 km/h 60 % 0 mm
11:21 16.7 °C 8.6 °C 1015.5 hPa SSW 7.1 km/h 11.1 km/h 59 % 0 mm
11:26 16.8 °C 7.9 °C 1015.1 hPa SSW 14 km/h 22.2 km/h 56 % 0 mm
11:31 17.1 °C 8.3 °C 1015.1 hPa SSE 10.1 km/h 14.8 km/h 56 % 0 mm
11:36 17.3 °C 7.9 °C 1015.1 hPa South 11.3 km/h 14.8 km/h 54 % 0 mm
11:41 17.5 °C 8.1 °C 1015.1 hPa SW 17.1 km/h 20.4 km/h 54 % 0 mm
11:46 17.6 °C 7.6 °C 1015.1 hPa SW 10 km/h 18.5 km/h 52 % 0 mm
11:51 17.8 °C 8.1 °C 1015.1 hPa South 12.1 km/h 18.5 km/h 53 % 0 mm
11:56 18.1 °C 8.1 °C 1015.1 hPa North 16.1 km/h 25.9 km/h 52 % 0 mm
12:01 17.8 °C 8.1 °C 1015.1 hPa SSE 10.3 km/h 18.5 km/h 53 % 0 mm
12:06 18.2 °C 7.6 °C 1015.1 hPa South 13.8 km/h 18.5 km/h 50 % 0 mm
12:11 17.9 °C 7.7 °C 1014.8 hPa SSW 7.1 km/h 11.1 km/h 51 % 0 mm
12:16 18.1 °C 7.8 °C 1014.8 hPa South 17.5 km/h 24.1 km/h 51 % 0 mm
12:21 18.1 °C 7.8 °C 1014.8 hPa SSE 11.6 km/h 18.5 km/h 51 % 0 mm
12:26 18.8 °C 8.1 °C 1014.8 hPa South 12.1 km/h 14.8 km/h 50 % 0 mm
12:31 18.8 °C 7.6 °C 1014.8 hPa SSE 15 km/h 22.2 km/h 48 % 0 mm
12:36 18.8 °C 7.2 °C 1014.4 hPa South 16.6 km/h 22.2 km/h 47 % 0 mm
12:41 18.9 °C 7 °C 1014.4 hPa WSW 14 km/h 20.9 km/h 46 % 0 mm
12:46 19.1 °C 7.2 °C 1014.4 hPa South 12.6 km/h 16.7 km/h 46 % 0 mm
12:51 18.9 °C 7.1 °C 1014.4 hPa SSE 14.6 km/h 22.2 km/h 46 % 0 mm
12:56 18.9 °C 7.1 °C 1014.4 hPa North 14.8 km/h 25.9 km/h 46 % 0 mm
13:01 18.7 °C 6.8 °C 1014.4 hPa SW 8.7 km/h 22.2 km/h 46 % 0 mm
13:06 18.9 °C 6.4 °C 1014.4 hPa South 11.3 km/h 16.7 km/h 44 % 0 mm
13:11 19.4 °C 6.8 °C 1014.4 hPa SSW 12.7 km/h 16.7 km/h 44 % 0 mm
13:16 19.6 °C 6.7 °C 1014.1 hPa South 10 km/h 18.5 km/h 43 % 0 mm
13:21 19.8 °C 6.8 °C 1014.1 hPa SSW 13.2 km/h 18.5 km/h 43 % 0 mm
13:26 19.8 °C 6.2 °C 1014.1 hPa SSW 16.9 km/h 20.4 km/h 41 % 0 mm
13:31 19.9 °C 6.9 °C 1014.1 hPa North 16.9 km/h 25.9 km/h 43 % 0 mm
13:36 19.9 °C 6.9 °C 1014.1 hPa SSE 15.1 km/h 25.9 km/h 43 % 0 mm
13:41 19.6 °C 6.6 °C 1014.1 hPa SW 13.8 km/h 22.2 km/h 43 % 0 mm
13:46 19.7 °C 6.4 °C 1014.1 hPa South 15.8 km/h 22.5 km/h 42 % 0 mm
13:51 20.2 °C 6.5 °C 1014.1 hPa SSE 11.1 km/h 20.4 km/h 41 % 0 mm
13:56 20.2 °C 5.8 °C 1014.1 hPa SSW 10.8 km/h 20.4 km/h 39 % 0 mm
14:01 20.5 °C 6.1 °C 1014.1 hPa SSE 13 km/h 18.5 km/h 39 % 0 mm
14:06 20.5 °C 6.4 °C 1014.1 hPa South 10.8 km/h 14.8 km/h 40 % 0 mm
14:11 20.3 °C 7.7 °C 1014.1 hPa SSW 15 km/h 22.2 km/h 44 % 0 mm
14:16 20.2 °C 7.6 °C 1013.8 hPa SW 15.6 km/h 24.1 km/h 44 % 0 mm
14:21 20.5 °C 7.8 °C 1013.8 hPa South 11.1 km/h 18.5 km/h 44 % 0 mm
14:26 20.7 °C 7.6 °C 1013.8 hPa South 14 km/h 22.2 km/h 43 % 0 mm
14:31 20.6 °C 7.9 °C 1013.8 hPa North 15.1 km/h 27.8 km/h 44 % 0 mm
14:36 20.4 °C 7.4 °C 1013.8 hPa South 9.5 km/h 18.5 km/h 43 % 0 mm
14:41 20.4 °C 7.4 °C 1013.8 hPa SSW 15.8 km/h 22.2 km/h 43 % 0 mm
14:46 20.5 °C 7.5 °C 1013.8 hPa SW 12.2 km/h 18.5 km/h 43 % 0 mm
14:51 21 °C 7.6 °C 1013.8 hPa South 13 km/h 16.7 km/h 42 % 0 mm
14:56 20.6 °C 7.6 °C 1013.8 hPa SSW 14.2 km/h 18.5 km/h 43 % 0 mm
15:01 20.6 °C 7.9 °C 1013.8 hPa SSW 10.3 km/h 18.5 km/h 44 % 0 mm
15:06 20.8 °C 8.1 °C 1014.1 hPa SW 15.1 km/h 22.2 km/h 44 % 0 mm
15:11 20.5 °C 7.8 °C 1014.1 hPa South 15.8 km/h 27.8 km/h 44 % 0 mm
15:16 20.5 °C 7.8 °C 1014.1 hPa SSE 15.3 km/h 20.4 km/h 44 % 0 mm
15:21 20.3 °C 7.6 °C 1013.8 hPa South 17.4 km/h 27.8 km/h 44 % 0 mm
15:26 20 °C 7.7 °C 1013.8 hPa SSW 19.3 km/h 31.5 km/h 45 % 0 mm
15:31 20.3 °C 7.9 °C 1013.8 hPa SSE 16.4 km/h 18.5 km/h 45 % 0 mm
15:36 20.3 °C 8.3 °C 1013.8 hPa SSW 15.1 km/h 22.2 km/h 46 % 0 mm
15:41 20.4 °C 8.1 °C 1013.8 hPa South 13.2 km/h 18.5 km/h 45 % 0 mm
15:46 20.4 °C 7.7 °C 1013.8 hPa South 14.5 km/h 22.2 km/h 44 % 0 mm
15:51 20.4 °C 7.7 °C 1013.8 hPa South 8.4 km/h 16.7 km/h 44 % 0 mm
15:56 19.9 °C 7.3 °C 1013.8 hPa South 14 km/h 22.2 km/h 44 % 0 mm
16:01 19.9 °C 7.6 °C 1013.8 hPa South 16.1 km/h 22.2 km/h 45 % 0 mm
16:06 19.8 °C 7.6 °C 1013.8 hPa North 10.9 km/h 12.9 km/h 45 % 0 mm
16:11 19.7 °C 7.4 °C 1013.8 hPa South 12.6 km/h 18.5 km/h 45 % 0 mm
16:16 19.8 °C 7.5 °C 1013.8 hPa SSW 17.2 km/h 22.5 km/h 45 % 0 mm
16:21 20 °C 7.4 °C 1013.8 hPa South 10.3 km/h 22.2 km/h 44 % 0 mm
16:26 20.2 °C 7.2 °C 1013.8 hPa SW 14.6 km/h 24.1 km/h 43 % 0 mm
16:31 19.9 °C 7.3 °C 1013.4 hPa South 13.8 km/h 18.5 km/h 44 % 0 mm
16:36 20.2 °C 7.2 °C 1013.4 hPa SSW 12.4 km/h 18.5 km/h 43 % 0 mm
16:41 20.2 °C 7.2 °C 1013.8 hPa SSE 7.9 km/h 25.9 km/h 43 % 0 mm
16:46 20.4 °C 7.4 °C 1013.8 hPa South 15.3 km/h 22.5 km/h 43 % 0 mm
16:51 20.4 °C 7.1 °C 1013.8 hPa SW 10.3 km/h 22.2 km/h 42 % 0 mm
16:56 20.3 °C 6.9 °C 1013.8 hPa SSW 11.4 km/h 14.8 km/h 42 % 0 mm
17:01 19.8 °C 6.6 °C 1013.8 hPa SSW 15.6 km/h 22.2 km/h 42 % 0 mm
17:06 19.8 °C 6.6 °C 1013.8 hPa South 5.3 km/h 18.5 km/h 42 % 0 mm
17:11 19.8 °C 6.9 °C 1013.8 hPa SSE 13 km/h 18.5 km/h 43 % 0 mm
17:16 19.6 °C 6.7 °C 1013.8 hPa SSW 17.1 km/h 18.5 km/h 43 % 0 mm
17:21 19.4 °C 6.5 °C 1013.8 hPa SSW 18.3 km/h 24.1 km/h 43 % 0 mm
17:26 19.4 °C 6.5 °C 1014.1 hPa SSW 6.6 km/h 18.5 km/h 43 % 0 mm
17:31 19.4 °C 6.5 °C 1013.8 hPa South 13.2 km/h 18.5 km/h 43 % 0 mm
17:36 19.4 °C 6.6 °C 1014.1 hPa South 13.5 km/h 18.5 km/h 43 % 0 mm
17:41 19.3 °C 6.4 °C 1013.8 hPa SSE 10.6 km/h 16.7 km/h 43 % 0 mm
17:46 19.3 °C 6.4 °C 1013.8 hPa South 11.7 km/h 19.3 km/h 43 % 0 mm
17:51 19.1 °C 6.2 °C 1014.1 hPa South 15.6 km/h 22.2 km/h 43 % 0 mm
17:56 18.8 °C 6.3 °C 1014.1 hPa SSE 9.8 km/h 18.5 km/h 44 % 0 mm
18:01 18.8 °C 6.3 °C 1014.1 hPa SSW 18 km/h 22.2 km/h 44 % 0 mm
18:06 18.6 °C 6.4 °C 1014.1 hPa South 13.4 km/h 27.8 km/h 45 % 0 mm
18:11 18.4 °C 6.3 °C 1014.4 hPa SSW 18 km/h 27.8 km/h 45 % 0 mm
18:16 18.4 °C 6.6 °C 1014.4 hPa SSW 14.8 km/h 22.2 km/h 46 % 0 mm
18:21 18.4 °C 6.9 °C 1014.4 hPa SSE 15.6 km/h 25.9 km/h 47 % 0 mm
18:26 18.3 °C 6.8 °C 1014.4 hPa South 15.8 km/h 24.1 km/h 47 % 0 mm
18:31 18.5 °C 6.9 °C 1014.1 hPa South 17.7 km/h 33.3 km/h 47 % 0 mm
18:36 18.7 °C 7.2 °C 1014.1 hPa South 17.9 km/h 17.9 km/h 47 % 0 mm
18:41 18.8 °C 6.9 °C 1014.1 hPa SSE 15.3 km/h 27.8 km/h 46 % 0 mm
18:46 18.6 °C 6.7 °C 1014.1 hPa South 17.5 km/h 22.2 km/h 46 % 0 mm
18:51 18.2 °C 6.7 °C 1014.1 hPa South 13.2 km/h 22.2 km/h 47 % 0 mm
18:56 18.3 °C 6.8 °C 1014.4 hPa South 15.3 km/h 25.7 km/h 47 % 0 mm
19:01 18.2 °C 6.7 °C 1014.4 hPa SSW 13.5 km/h 18.5 km/h 47 % 0 mm
19:06 18 °C 6.8 °C 1014.4 hPa South 12.6 km/h 22.2 km/h 48 % 0 mm
19:11 17.9 °C 6.7 °C 1014.4 hPa South 8.4 km/h 18.5 km/h 48 % 0 mm
19:16 17.8 °C 6.6 °C 1014.4 hPa South 12.7 km/h 14.8 km/h 48 % 0 mm
19:22 17.7 °C 6.5 °C 1014.4 hPa South 13.4 km/h 16.7 km/h 48 % 0 mm
19:27 17.6 °C 6.4 °C 1014.4 hPa SSW 6 km/h 13 km/h 48 % 0 mm
19:32 17.4 °C 6.3 °C 1014.8 hPa South 13.2 km/h 20.4 km/h 48 % 0 mm
19:37 17.3 °C 6.4 °C 1014.8 hPa South 18.2 km/h 31.5 km/h 49 % 0 mm
19:42 17.1 °C 6.3 °C 1014.8 hPa SSE 12.7 km/h 18.5 km/h 49 % 0 mm
19:47 16.9 °C 6.2 °C 1014.8 hPa South 9.5 km/h 18.5 km/h 49 % 0 mm
19:52 16.7 °C 6.2 °C 1014.8 hPa South 13.5 km/h 20.4 km/h 50 % 0 mm
19:57 16.6 °C 6.1 °C 1014.8 hPa SSE 9.3 km/h 20.4 km/h 50 % 0 mm
20:02 16.4 °C 6.2 °C 1014.8 hPa South 8.2 km/h 13 km/h 51 % 0 mm
20:07 16.2 °C 6.1 °C 1015.1 hPa South 5.3 km/h 7.4 km/h 51 % 0 mm
20:12 16.1 °C 6.2 °C 1014.8 hPa South 7.7 km/h 14.8 km/h 52 % 0 mm
20:17 15.8 °C 6 °C 1015.1 hPa SSW 6.8 km/h 7.4 km/h 52 % 0 mm
20:22 15.7 °C 6.2 °C 1015.1 hPa South 10.6 km/h 17.7 km/h 53 % 0 mm
20:27 15.6 °C 6 °C 1015.1 hPa South 7.1 km/h 9.3 km/h 53 % 0 mm
20:32 15.3 °C 5.8 °C 1015.5 hPa North 10.8 km/h 14.8 km/h 53 % 0 mm
20:37 15.1 °C 5.9 °C 1015.5 hPa SSW 12.2 km/h 16.7 km/h 54 % 0 mm
20:42 14.9 °C 5.7 °C 1015.5 hPa SSW 12.7 km/h 18.5 km/h 54 % 0 mm
20:47 14.7 °C 5.8 °C 1015.1 hPa North 13.4 km/h 16.7 km/h 55 % 0 mm
20:52 14.6 °C 5.6 °C 1015.5 hPa SSW 7.4 km/h 18.5 km/h 55 % 0 mm
20:57 14.4 °C 5.7 °C 1015.5 hPa South 7.6 km/h 14.8 km/h 56 % 0 mm
21:02 14.2 °C 5.8 °C 1015.5 hPa South 6.6 km/h 12.9 km/h 57 % 0 mm
21:07 14.1 °C 5.7 °C 1015.5 hPa South 9.7 km/h 14.5 km/h 57 % 0 mm
21:12 13.9 °C 5.8 °C 1015.8 hPa South 6.9 km/h 11.1 km/h 58 % 0 mm
21:17 13.8 °C 5.7 °C 1015.8 hPa South 7.4 km/h 13 km/h 58 % 0 mm
21:22 13.6 °C 5.7 °C 1015.8 hPa South 7.2 km/h 9.3 km/h 59 % 0 mm
21:27 13.5 °C 5.9 °C 1015.8 hPa South 12.1 km/h 16.7 km/h 60 % 0 mm
21:32 13.4 °C 6 °C 1015.8 hPa South 8 km/h 11.3 km/h 61 % 0 mm
21:37 13.3 °C 6.2 °C 1016.1 hPa South 9.8 km/h 13 km/h 62 % 0 mm
21:42 13.2 °C 6.3 °C 1016.1 hPa South 7.2 km/h 7.4 km/h 63 % 0 mm
21:47 13.1 °C 6.4 °C 1016.1 hPa SSW 6.3 km/h 18.5 km/h 64 % 0 mm
21:52 13 °C 6.6 °C 1016.1 hPa South 8.4 km/h 9.3 km/h 65 % 0 mm
21:57 12.9 °C 6.5 °C 1016.5 hPa North 7.4 km/h 9.3 km/h 65 % 0 mm
22:02 12.8 °C 6.6 °C 1016.5 hPa South 4.5 km/h 6.4 km/h 66 % 0 mm
22:07 12.7 °C 6.7 °C 1016.5 hPa South 3.7 km/h 11.1 km/h 67 % 0 mm
22:12 12.6 °C 6.6 °C 1016.5 hPa South 6.6 km/h 9.7 km/h 67 % 0 mm
22:17 12.4 °C 6.7 °C 1016.5 hPa South 6 km/h 12.9 km/h 68 % 0 mm
22:22 12.3 °C 6.8 °C 1016.8 hPa South 9.2 km/h 12.9 km/h 69 % 0 mm
22:27 12.2 °C 6.8 °C 1016.8 hPa South 8 km/h 11.3 km/h 70 % 0 mm
22:32 12.1 °C 6.8 °C 1016.8 hPa South 10.6 km/h 13 km/h 70 % 0 mm
22:37 12 °C 6.9 °C 1016.8 hPa South 6.4 km/h 9.7 km/h 71 % 0 mm
22:42 11.9 °C 7.1 °C 1016.8 hPa South 5.5 km/h 13 km/h 72 % 0 mm
22:47 11.9 °C 7 °C 1016.8 hPa South 8 km/h 11.1 km/h 72 % 0 mm
22:52 11.8 °C 7.2 °C 1016.8 hPa South 5.6 km/h 11.1 km/h 73 % 0 mm
22:57 11.7 °C 7.1 °C 1016.8 hPa South 7.1 km/h 13 km/h 73 % 0 mm
23:02 11.7 °C 7.2 °C 1016.8 hPa South 6.6 km/h 11.1 km/h 74 % 0 mm
23:07 11.6 °C 7.1 °C 1016.8 hPa South 1.1 km/h 5.6 km/h 74 % 0 mm
23:12 11.5 °C 7 °C 1016.8 hPa South 5.6 km/h 7.4 km/h 74 % 0 mm
23:17 11.4 °C 7.2 °C 1016.8 hPa South 6.9 km/h 9.3 km/h 75 % 0 mm
23:22 11.3 °C 7.1 °C 1016.8 hPa South 11.1 km/h 11.1 km/h 75 % 0 mm
23:27 11.3 °C 7 °C 1016.8 hPa South 8 km/h 9.7 km/h 75 % 0 mm
23:32 11.2 °C 7.1 °C 1016.8 hPa South 7.1 km/h 11.1 km/h 76 % 0 mm
23:37 11.1 °C 7.2 °C 1016.8 hPa South 9.8 km/h 11.3 km/h 77 % 0 mm
23:42 11.1 °C 7.2 °C 1016.8 hPa South 8 km/h 11.1 km/h 77 % 0 mm
23:47 11.1 °C 7.2 °C 1016.8 hPa South 5.1 km/h 9.3 km/h 77 % 0 mm
23:52 11.1 °C 7.2 °C 1016.8 hPa South 6.6 km/h 8 km/h 77 % 0 mm
23:57 11 °C 7.1 °C 1016.8 hPa South 3.4 km/h 7.4 km/h 77 % 0 mm
Ararat Weather
Compliments of Weather Underground - 2 mb
Click here to send mail.


ABOUT

Live weather data from Ararat, Victoria, Australia, 3377
Data uploaded from Cumulus every 5 minutes to Weather Underground.
This site then downloads the raw data for formatting and display.
Metric and imperial data can be displayed. Graphs and historical data available.
Includes Sun and Moon times and rain image live from BOM.

Check out Ararat Weather on Facebook, Twitter and Google +

Help support ongoing costs by checking out the ads





Follow @AraratWeather